Observation data for Northwest San Angelo on 05/14/2018      Previous  Date  Next       Current Mesonet Observations  Soil Data  Daily Summary Page  Observations in Plain Language
KASU 140500Z 16005KT 26/16 A2993 RMK A01 T02560157  RH  055%=      5-min Rain = 0
KASU 140505Z 15005KT 25/16 A2993 RMK A01 T02530156  RH  056%=      5-min Rain = 0
KASU 140510Z 14006KT 25/16 A2993 RMK A01 T02510156  RH  057%=      5-min Rain = 0
KASU 140515Z 15005KT 25/16 A2993 RMK A01 T02500156  RH  057%=      5-min Rain = 0
KASU 140520Z 15005KT 25/16 A2993 RMK A01 T02480156  RH  058%=      5-min Rain = 0
KASU 140525Z 15005KT 25/16 A2993 RMK A01 T02490157  RH  058%=      5-min Rain = 0
KASU 140530Z 15004KT 25/16 A2993 RMK A01 T02470156  RH  058%=      5-min Rain = 0
KASU 140535Z 15004KT 25/16 A2993 RMK A01 T02460156  RH  059%=      5-min Rain = 0
KASU 140540Z 15004KT 25/16 A2993 RMK A01 T02450157  RH  059%=      5-min Rain = 0
KASU 140545Z 13004KT 24/16 A2993 RMK A01 T02420156  RH  060%=      5-min Rain = 0
KASU 140550Z 13003KT 24/16 A2993 RMK A01 T02430158  RH  060%=      5-min Rain = 0
KASU 140555Z 13003KT 24/16 A2993 RMK A01 T02430158  RH  061%=      5-min Rain = 0
KASU 140600Z 12003KT 24/16 A2993 RMK A01 T02420159  RH  061%=      5-min Rain = 0
KASU 140605Z 11003KT 24/16 A2993 RMK A01 T02440160  RH  061%=      5-min Rain = 0
KASU 140610Z 11003KT 24/16 A2993 RMK A01 T02420160  RH  062%=      5-min Rain = 0
KASU 140615Z 11004KT 24/16 A2993 RMK A01 T02390159  RH  062%=      5-min Rain = 0
KASU 140620Z 10005KT 24/16 A2993 RMK A01 T02390160  RH  063%=      5-min Rain = 0
KASU 140625Z 09005KT 24/16 A2993 RMK A01 T02370159  RH  063%=      5-min Rain = 0
KASU 140630Z 08006KT 24/16 A2992 RMK A01 T02360158  RH  063%=      5-min Rain = 0
KASU 140635Z 09006KT 24/16 A2993 RMK A01 T02360158  RH  063%=      5-min Rain = 0
KASU 140640Z 09005KT 24/16 A2993 RMK A01 T02360158  RH  063%=      5-min Rain = 0
KASU 140645Z 09006KT 24/16 A2992 RMK A01 T02350158  RH  063%=      5-min Rain = 0
KASU 140650Z 10006KT 24/16 A2992 RMK A01 T02360159  RH  063%=      5-min Rain = 0
KASU 140655Z 10006KT 24/16 A2992 RMK A01 T02390160  RH  062%=      5-min Rain = 0
KASU 140700Z 10005KT 24/16 A2992 RMK A01 T02380159  RH  063%=      5-min Rain = 0
KASU 140705Z 10006KT 24/16 A2992 RMK A01 T02370159  RH  063%=      5-min Rain = 0
KASU 140710Z 10006KT 24/16 A2992 RMK A01 T02380160  RH  063%=      5-min Rain = 0
KASU 140715Z 11006KT 24/16 A2992 RMK A01 T02390160  RH  063%=      5-min Rain = 0
KASU 140720Z 11006KT 24/16 A2992 RMK A01 T02390161  RH  063%=      5-min Rain = 0
KASU 140725Z 11007KT 24/16 A2992 RMK A01 T02390161  RH  063%=      5-min Rain = 0
KASU 140730Z 11007KT 24/16 A2992 RMK A01 T02400161  RH  063%=      5-min Rain = 0
KASU 140735Z 10007KT 24/16 A2992 RMK A01 T02400161  RH  063%=      5-min Rain = 0
KASU 140740Z 10006KT 24/16 A2992 RMK A01 T02400162  RH  063%=      5-min Rain = 0
KASU 140745Z 11006KT 24/16 A2992 RMK A01 T02400162  RH  063%=      5-min Rain = 0
KASU 140750Z 11006KT 24/16 A2992 RMK A01 T02400162  RH  063%=      5-min Rain = 0
KASU 140755Z 10006KT 24/16 A2992 RMK A01 T02390162  RH  063%=      5-min Rain = 0
KASU 140800Z 10007KT 24/16 A2992 RMK A01 T02400162  RH  063%=      5-min Rain = 0
KASU 140805Z 11007KT 24/16 A2992 RMK A01 T02400162  RH  063%=      5-min Rain = 0
KASU 140810Z 12007KT 24/16 A2992 RMK A01 T02410163  RH  063%=      5-min Rain = 0
KASU 140815Z 12007KT 24/16 A2992 RMK A01 T02410164  RH  063%=      5-min Rain = 0
KASU 140820Z 12008KT 24/16 A2992 RMK A01 T02410164  RH  064%=      5-min Rain = 0
KASU 140825Z 13007KT 24/16 A2993 RMK A01 T02400164  RH  064%=      5-min Rain = 0
KASU 140830Z 12007KT 24/17 A2993 RMK A01 T02410166  RH  064%=      5-min Rain = 0
KASU 140835Z 12006KT 24/17 A2993 RMK A01 T02430167  RH  064%=      5-min Rain = 0
KASU 140840Z 12006KT 24/17 A2993 RMK A01 T02440167  RH  064%=      5-min Rain = 0
KASU 140845Z 11006KT 24/17 A2993 RMK A01 T02430167  RH  064%=      5-min Rain = 0
KASU 140850Z 12006KT 24/17 A2993 RMK A01 T02440167  RH  064%=      5-min Rain = 0
KASU 140855Z 12006KT 24/17 A2993 RMK A01 T02440169  RH  064%=      5-min Rain = 0
KASU 140900Z 13008KT 25/17 A2993 RMK A01 T02450171  RH  065%=      5-min Rain = 0
KASU 140905Z 13009KT 25/17 A2993 RMK A01 T02460173  RH  065%=      5-min Rain = 0
KASU 140910Z 13009KT 25/17 A2993 RMK A01 T02460174  RH  066%=      5-min Rain = 0
KASU 140915Z 13009KT 25/18 A2993 RMK A01 T02460175  RH  066%=      5-min Rain = 0
KASU 140920Z 13010KT 25/18 A2993 RMK A01 T02460175  RH  066%=      5-min Rain = 0
KASU 140925Z 13008KT 25/18 A2993 RMK A01 T02450175  RH  067%=      5-min Rain = 0
KASU 140930Z 13007KT 25/18 A2993 RMK A01 T02450176  RH  067%=      5-min Rain = 0
KASU 140935Z 13008KT 24/18 A2993 RMK A01 T02440176  RH  067%=      5-min Rain = 0
KASU 140940Z 13009KT 24/18 A2993 RMK A01 T02440176  RH  067%=      5-min Rain = 0
KASU 140945Z 14007KT 24/18 A2994 RMK A01 T02440177  RH  068%=      5-min Rain = 0
KASU 140950Z 14008KT 24/18 A2994 RMK A01 T02440177  RH  068%=      5-min Rain = 0
KASU 140955Z 14008KT 24/18 A2994 RMK A01 T02440177  RH  068%=      5-min Rain = 0
KASU 141000Z 15009KT 24/18 A2994 RMK A01 T02440178  RH  068%=      5-min Rain = 0
KASU 141005Z 15009KT 24/18 A2994 RMK A01 T02440179  RH  069%=      5-min Rain = 0
KASU 141010Z 15010KT 24/18 A2994 RMK A01 T02440179  RH  069%=      5-min Rain = 0
KASU 141015Z 15009KT 24/18 A2994 RMK A01 T02440179  RH  069%=      5-min Rain = 0
KASU 141020Z 15008KT 24/18 A2994 RMK A01 T02430179  RH  069%=      5-min Rain = 0
KASU 141025Z 15008KT 24/18 A2994 RMK A01 T02430180  RH  070%=      5-min Rain = 0
KASU 141030Z 16008KT 24/18 A2994 RMK A01 T02430180  RH  070%=      5-min Rain = 0
KASU 141035Z 16009G14KT 24/18 A2994 RMK A01 T02440180  RH  069%=      5-min Rain = 0
KASU 141040Z 17009G14KT 24/18 A2994 RMK A01 T02440180  RH  069%=      5-min Rain = 0
KASU 141045Z 17007KT 24/18 A2994 RMK A01 T02430180  RH  070%=      5-min Rain = 0
KASU 141050Z 17008KT 24/18 A2994 RMK A01 T02430180  RH  070%=      5-min Rain = 0
KASU 141055Z 16008KT 24/18 A2994 RMK A01 T02430180  RH  070%=      5-min Rain = 0
KASU 141100Z 16009G14KT 24/18 A2994 RMK A01 T02430180  RH  069%=      5-min Rain = 0
KASU 141105Z 15007KT 24/18 A2994 RMK A01 T02420180  RH  070%=      5-min Rain = 0
KASU 141110Z 15009KT 24/18 A2994 RMK A01 T02420180  RH  070%=      5-min Rain = 0
KASU 141115Z 15011KT 24/18 A2994 RMK A01 T02430180  RH  070%=      5-min Rain = 0
KASU 141120Z 16013G19KT 24/18 A2995 RMK A01 T02440179  RH  069%=      5-min Rain = 0
KASU 141125Z 17011G18KT 24/18 A2995 RMK A01 T02440178  RH  069%=      5-min Rain = 0
KASU 141130Z 16009KT 24/18 A2995 RMK A01 T02430178  RH  069%=      5-min Rain = 0
KASU 141135Z 16011KT 24/18 A2995 RMK A01 T02420178  RH  069%=      5-min Rain = 0
KASU 141140Z 16011KT 24/18 A2995 RMK A01 T02410177  RH  069%=      5-min Rain = 0
KASU 141145Z 16010KT 24/18 A2995 RMK A01 T02410177  RH  069%=      5-min Rain = 0
KASU 141150Z 16010G16KT 24/18 A2994 RMK A01 T02400177  RH  070%=      5-min Rain = 0
KASU 141155Z 16010KT 24/18 A2994 RMK A01 T02400177  RH  070%=      5-min Rain = 0
KASU 141200Z 16010KT 24/18 A2994 RMK A01 T02390177  RH  070%=      5-min Rain = 0
KASU 141205Z 16010KT 24/18 A2995 RMK A01 T02390177  RH  070%=      5-min Rain = 0
KASU 141210Z 16010KT 24/18 A2995 RMK A01 T02390177  RH  070%=      5-min Rain = 0
KASU 141215Z 16010KT 24/18 A2995 RMK A01 T02390178  RH  070%=      5-min Rain = 0
KASU 141220Z 16008KT 24/18 A2995 RMK A01 T02390178  RH  070%=      5-min Rain = 0
KASU 141225Z 15008KT 24/18 A2995 RMK A01 T02390178  RH  070%=      5-min Rain = 0
KASU 141230Z 16008KT 24/18 A2996 RMK A01 T02400178  RH  070%=      5-min Rain = 0
KASU 141235Z 16008KT 24/18 A2996 RMK A01 T02410178  RH  070%=      5-min Rain = 0
KASU 141240Z 16007KT 24/18 A2996 RMK A01 T02410179  RH  070%=      5-min Rain = 0
KASU 141245Z 16007KT 24/18 A2996 RMK A01 T02410179  RH  070%=      5-min Rain = 0
KASU 141250Z 16008KT 24/18 A2997 RMK A01 T02420179  RH  070%=      5-min Rain = 0
KASU 141255Z 16008KT 24/18 A2997 RMK A01 T02420179  RH  070%=      5-min Rain = 0
KASU 141300Z 15009G14KT 24/18 A2997 RMK A01 T02420179  RH  070%=      5-min Rain = 0
KASU 141305Z 16007KT 24/18 A2997 RMK A01 T02420179  RH  070%=      5-min Rain = 0
KASU 141310Z 16009G14KT 24/18 A2997 RMK A01 T02420180  RH  070%=      5-min Rain = 0
KASU 141315Z 16008KT 24/18 A2997 RMK A01 T02420180  RH  070%=      5-min Rain = 0
KASU 141320Z 16009KT 24/18 A2998 RMK A01 T02430180  RH  070%=      5-min Rain = 0
KASU 141325Z 16010KT 24/18 A2998 RMK A01 T02430180  RH  070%=      5-min Rain = 0
KASU 141330Z 17009KT 24/18 A2998 RMK A01 T02430180  RH  070%=      5-min Rain = 0
KASU 141335Z 17009KT 24/18 A2998 RMK A01 T02430180  RH  069%=      5-min Rain = 0
KASU 141340Z 17009KT 24/18 A2998 RMK A01 T02430180  RH  070%=      5-min Rain = 0
KASU 141345Z 17009KT 24/18 A2999 RMK A01 T02420180  RH  070%=      5-min Rain = 0
KASU 141350Z 17010KT 24/18 A2999 RMK A01 T02420179  RH  070%=      5-min Rain = 0
KASU 141355Z 17010KT 24/18 A2999 RMK A01 T02420179  RH  070%=      5-min Rain = 0
KASU 141400Z 16007KT 24/18 A2999 RMK A01 T02420180  RH  070%=      5-min Rain = 0
KASU 141405Z 16006KT 24/18 A2999 RMK A01 T02430180  RH  070%=      5-min Rain = 0
KASU 141410Z 16008KT 24/18 A2999 RMK A01 T02430180  RH  070%=      5-min Rain = 0
KASU 141415Z 16008KT 24/18 A2999 RMK A01 T02430179  RH  069%=      5-min Rain = 0
KASU 141420Z 17010KT 24/18 A2999 RMK A01 T02440179  RH  069%=      5-min Rain = 0
KASU 141425Z 16008KT 25/18 A2999 RMK A01 T02450179  RH  068%=      5-min Rain = 0
KASU 141430Z 15010KT 25/18 A2999 RMK A01 T02460179  RH  068%=      5-min Rain = 0
KASU 141435Z 16010G15KT 25/18 A2999 RMK A01 T02470178  RH  067%=      5-min Rain = 0
KASU 141440Z 17010KT 25/18 A2999 RMK A01 T02480177  RH  066%=      5-min Rain = 0
KASU 141445Z 16010KT 25/18 A2999 RMK A01 T02510177  RH  065%=      5-min Rain = 0
KASU 141450Z 15011KT 25/18 A2999 RMK A01 T02530176  RH  064%=      5-min Rain = 0
KASU 141455Z 15012KT 26/18 A2999 RMK A01 T02560176  RH  063%=      5-min Rain = 0
KASU 141500Z 15012KT 26/18 A2999 RMK A01 T02600177  RH  062%=      5-min Rain = 0
KASU 141505Z 15013KT 26/18 A2999 RMK A01 T02610175  RH  061%=      5-min Rain = 0
KASU 141510Z 15011G16KT 27/18 A2999 RMK A01 T02660177  RH  060%=      5-min Rain = 0
KASU 141515Z 16010G17KT 27/18 A2999 RMK A01 T02670176  RH  059%=      5-min Rain = 0
KASU 141520Z 17011KT 27/18 A2999 RMK A01 T02670176  RH  059%=      5-min Rain = 0
KASU 141525Z 17009G14KT 27/18 A2999 RMK A01 T02700177  RH  058%=      5-min Rain = 0
KASU 141530Z 16010G15KT 28/18 A2999 RMK A01 T02750176  RH  056%=      5-min Rain = 0
KASU 141535Z 16010KT 27/18 A2999 RMK A01 T02720176  RH  057%=      5-min Rain = 0
KASU 141540Z 18010KT 28/18 A2999 RMK A01 T02780178  RH  056%=      5-min Rain = 0
KASU 141545Z 17011G16KT 28/18 A2999 RMK A01 T02800176  RH  055%=      5-min Rain = 0
KASU 141550Z 18011KT 27/18 A2999 RMK A01 T02730176  RH  057%=      5-min Rain = 0
KASU 141555Z 18009KT 28/18 A2998 RMK A01 T02750176  RH  056%=      5-min Rain = 0
KASU 141600Z 15010G17KT 29/18 A2998 RMK A01 T02850177  RH  053%=      5-min Rain = 0
KASU 141605Z 14012G19KT 28/18 A2998 RMK A01 T02800176  RH  054%=      5-min Rain = 0
KASU 141610Z 14012G17KT 27/17 A2998 RMK A01 T02700174  RH  057%=      5-min Rain = 0
KASU 141615Z 13012KT 27/18 A2998 RMK A01 T02720175  RH  057%=      5-min Rain = 0
KASU 141620Z 15011G16KT 27/18 A2998 RMK A01 T02730175  RH  057%=      5-min Rain = 0
KASU 141625Z 15010G15KT 27/18 A2998 RMK A01 T02730175  RH  056%=      5-min Rain = 0
KASU 141630Z 14012G18KT 28/18 A2998 RMK A01 T02750175  RH  056%=      5-min Rain = 0
KASU 141635Z 15009G14KT 28/18 A2998 RMK A01 T02750175  RH  056%=      5-min Rain = 0
KASU 141640Z 18011KT 28/17 A2998 RMK A01 T02770174  RH  055%=      5-min Rain = 0
KASU 141645Z 17010G15KT 28/18 A2997 RMK A01 T02810176  RH  054%=      5-min Rain = 0
KASU 141650Z 17011G17KT 29/18 A2997 RMK A01 T02930176  RH  051%=      5-min Rain = 0
KASU 141655Z 17012G17KT 29/18 A2997 RMK A01 T02940176  RH  050%=      5-min Rain = 0
KASU 141700Z 18013G19KT 29/17 A2997 RMK A01 T02940174  RH  050%=      5-min Rain = 0
KASU 141705Z 17012G19KT 29/17 A2997 RMK A01 T02850173  RH  052%=      5-min Rain = 0
KASU 141710Z 16011G17KT 29/18 A2997 RMK A01 T02850175  RH  053%=      5-min Rain = 0
KASU 141715Z 18012G19KT 29/18 A2997 RMK A01 T02910176  RH  051%=      5-min Rain = 0
KASU 141720Z 18012G18KT 29/18 A2997 RMK A01 T02850175  RH  053%=      5-min Rain = 0
KASU 141725Z 17011KT 29/18 A2997 RMK A01 T02900176  RH  051%=      5-min Rain = 0
KASU 141730Z 17010G15KT 29/18 A2997 RMK A01 T02940177  RH  051%=      5-min Rain = 0
KASU 141735Z 17011G17KT 30/18 A2997 RMK A01 T03010177  RH  049%=      5-min Rain = 0
KASU 141740Z 18011G18KT 30/18 A2997 RMK A01 T03000175  RH  048%=      5-min Rain = 0
KASU 141745Z 16009G18KT 30/18 A2997 RMK A01 T02950176  RH  050%=      5-min Rain = 0
KASU 141750Z 18012G19KT 30/18 A2997 RMK A01 T03000175  RH  048%=      5-min Rain = 0
KASU 141755Z 16011G17KT 30/18 A2997 RMK A01 T02990175  RH  048%=      5-min Rain = 0
KASU 141800Z 17011G16KT 31/18 A2997 RMK A01 T03080176  RH  046%=      5-min Rain = 0
KASU 141805Z 16012KT 31/17 A2996 RMK A01 T03050174  RH  047%=      5-min Rain = 0
KASU 141810Z 15011G16KT 31/18 A2996 RMK A01 T03050176  RH  047%=      5-min Rain = 0
KASU 141815Z 17012G22KT 30/17 A2996 RMK A01 T02990171  RH  048%=      5-min Rain = 0
KASU 141820Z 18013G20KT 31/17 A2996 RMK A01 T03060173  RH  046%=      5-min Rain = 0
KASU 141825Z 17011G17KT 31/17 A2996 RMK A01 T03130174  RH  045%=      5-min Rain = 0
KASU 141830Z 17007G13KT 30/17 A2995 RMK A01 T03030173  RH  047%=      5-min Rain = 0
KASU 141835Z 16010G15KT 31/17 A2995 RMK A01 T03130173  RH  044%=      5-min Rain = 0
KASU 141840Z 17012G18KT 31/17 A2995 RMK A01 T03140171  RH  043%=      5-min Rain = 0
KASU 141845Z 19011G19KT 31/17 A2995 RMK A01 T03080170  RH  045%=      5-min Rain = 0
KASU 141850Z 15010G16KT 31/17 A2994 RMK A01 T03130172  RH  044%=      5-min Rain = 0
KASU 141855Z 16011G21KT 32/17 A2994 RMK A01 T03170173  RH  043%=      5-min Rain = 0
KASU 141900Z 17010G15KT 32/17 A2994 RMK A01 T03200172  RH  042%=      5-min Rain = 0
KASU 141905Z 17009G16KT 31/17 A2994 RMK A01 T03120170  RH  044%=      5-min Rain = 0
KASU 141910Z 17010G18KT 32/17 A2994 RMK A01 T03200171  RH  042%=      5-min Rain = 0
KASU 141915Z 16009KT 31/17 A2994 RMK A01 T03120170  RH  043%=      5-min Rain = 0
KASU 141920Z 17010G17KT 32/17 A2994 RMK A01 T03220170  RH  041%=      5-min Rain = 0
KASU 141925Z 17010G17KT 32/17 A2993 RMK A01 T03240170  RH  041%=      5-min Rain = 0
KASU 141930Z 15012G18KT 31/17 A2993 RMK A01 T03100167  RH  043%=      5-min Rain = 0
KASU 141935Z 16009G14KT 31/17 A2992 RMK A01 T03060168  RH  045%=      5-min Rain = 0
KASU 141940Z 14013G18KT 31/17 A2993 RMK A01 T03100171  RH  045%=      5-min Rain = 0
KASU 141945Z 14013G21KT 30/17 A2993 RMK A01 T03030170  RH  046%=      5-min Rain = 0
KASU 141950Z 14009G14KT 30/17 A2992 RMK A01 T03020170  RH  046%=      5-min Rain = 0
KASU 141955Z 15011KT 30/17 A2992 RMK A01 T03040171  RH  046%=      5-min Rain = 0
KASU 142000Z 15012KT 30/17 A2992 RMK A01 T02990172  RH  047%=      5-min Rain = 0
KASU 142005Z 15010KT 30/17 A2992 RMK A01 T02970172  RH  048%=      5-min Rain = 0
KASU 142010Z 15010KT 30/17 A2992 RMK A01 T02960172  RH  048%=      5-min Rain = 0
KASU 142015Z 15010G15KT 29/18 A2991 RMK A01 T02940175  RH  050%=      5-min Rain = 0
KASU 142020Z 17011KT 29/18 A2991 RMK A01 T02910176  RH  051%=      5-min Rain = 0
KASU 142025Z 18012G17KT 29/18 A2992 RMK A01 T02900175  RH  051%=      5-min Rain = 0
KASU 142030Z 17011KT 29/17 A2992 RMK A01 T02880174  RH  052%=      5-min Rain = 0
KASU 142035Z 16010KT 29/18 A2991 RMK A01 T02860176  RH  053%=      5-min Rain = 0
KASU 142040Z 16010KT 28/19 A2991 RMK A01 T02800185  RH  058%=      5-min Rain = 0
KASU 142045Z 16010KT 27/19 A299 RMK A01 T02710191  RH  063%=      5-min Rain = 0
KASU 142050Z 14010KT 26/20 A2989 RMK A01 T02630198  RH  069%=      5-min Rain = 0
KASU 142055Z 14010KT 26/20 A2988 RMK A01 T02590200  RH  072%=      5-min Rain = 0.03
KASU 142100Z 14007KT 26/20 A2988 RMK A01 T02580203  RH  074%=      5-min Rain = 0.01
KASU 142105Z 14007KT 26/21 A2988 RMK A01 T02590205  RH  074%=      5-min Rain = 0
KASU 142110Z 14006KT 26/20 A2988 RMK A01 T02640203  RH  071%=      5-min Rain = 0
KASU 142115Z 12006KT 27/20 A2988 RMK A01 T02670202  RH  069%=      5-min Rain = 0
KASU 142120Z 09005KT 27/20 A2988 RMK A01 T02700203  RH  069%=      5-min Rain = 0
KASU 142125Z 06005KT 27/21 A2988 RMK A01 T02720207  RH  070%=      5-min Rain = 0
KASU 142130Z 09006KT 27/21 A2988 RMK A01 T02740206  RH  068%=      5-min Rain = 0
KASU 142135Z 11007KT 28/20 A2988 RMK A01 T02780196  RH  063%=      5-min Rain = 0
KASU 142140Z 11007KT 28/20 A2988 RMK A01 T02790196  RH  062%=      5-min Rain = 0
KASU 142145Z 11008G14KT 28/19 A2988 RMK A01 T02820193  RH  060%=      5-min Rain = 0
KASU 142150Z 12008KT 29/19 A2987 RMK A01 T02850190  RH  058%=      5-min Rain = 0
KASU 142155Z 14008KT 29/19 A2987 RMK A01 T02870190  RH  057%=      5-min Rain = 0
KASU 142200Z 15009KT 29/19 A2987 RMK A01 T02900189  RH  056%=      5-min Rain = 0
KASU 142205Z 15009G14KT 29/19 A2987 RMK A01 T02930192  RH  056%=      5-min Rain = 0
KASU 142210Z 15012KT 30/19 A2986 RMK A01 T02960186  RH  053%=      5-min Rain = 0
KASU 142215Z 14010KT 29/19 A2985 RMK A01 T02930185  RH  054%=      5-min Rain = 0
KASU 142220Z 15010KT 29/19 A2985 RMK A01 T02910186  RH  054%=      5-min Rain = 0
KASU 142225Z 14010KT 29/19 A2984 RMK A01 T02900185  RH  054%=      5-min Rain = 0
KASU 142230Z 14011KT 29/19 A2983 RMK A01 T02860191  RH  058%=      5-min Rain = 0.01
KASU 142235Z 14011KT 28/19 A2982 RMK A01 T02760191  RH  062%=      5-min Rain = 0
KASU 142240Z 15010G16KT 28/19 A2983 RMK A01 T02770188  RH  060%=      5-min Rain = 0
KASU 142245Z 14010KT 28/19 A2984 RMK A01 T02790185  RH  058%=      5-min Rain = 0
KASU 142250Z 14007KT 28/18 A2984 RMK A01 T02790184  RH  058%=      5-min Rain = 0
KASU 142255Z 14007KT 28/18 A2985 RMK A01 T02770184  RH  058%=      5-min Rain = 0
KASU 142300Z 14006KT 28/19 A2985 RMK A01 T02760186  RH  060%=      5-min Rain = 0
KASU 142305Z 13005KT 28/19 A2985 RMK A01 T02750187  RH  060%=      5-min Rain = 0
KASU 142310Z 09004KT 27/19 A2984 RMK A01 T02740188  RH  061%=      5-min Rain = 0
KASU 142315Z 33007G16KT 27/19 A2986 RMK A01 T02720190  RH  063%=      5-min Rain = 0
KASU 142320Z 35022G33KT 24/17 A2987 RMK A01 T02360173  RH  070%=      5-min Rain = 0
KASU 142325Z 01012G23KT 22/17 A2986 RMK A01 T02160171  RH  077%=      5-min Rain = 0
KASU 142330Z 35012G20KT 22/18 A2987 RMK A01 T02190178  RH  080%=      5-min Rain = 0.01
KASU 142335Z 35017G25KT 22/18 A2986 RMK A01 T02170181  RH  082%=      5-min Rain = 0.04
KASU 142340Z 00013G22KT 22/19 A2986 RMK A01 T02160186  RH  085%=      5-min Rain = 0.05
KASU 142345Z 35015G28KT 21/18 A2986 RMK A01 T02110176  RH  082%=      5-min Rain = 0.07
KASU 142350Z 34023G31KT 20/16 A2986 RMK A01 T02030161  RH  079%=      5-min Rain = 0.08
KASU 142355Z 34022G32KT 20/16 A2987 RMK A01 T02000159  RH  079%=      5-min Rain = 0.09
KASU 150000Z 35020G27KT 20/16 A2989 RMK A01 T01960157  RH  080%=      5-min Rain = 0.13
KASU 150005Z 36025G38KT 18/16 A2992 RMK A01 T01770155  RH  089%=      5-min Rain = 0.24
KASU 150010Z 02020G38KT 17/16 A2995 RMK A01 T01660157  RH  097%=      5-min Rain = 0.28
KASU 150015Z 03013G32KT 16/15 A2996 RMK A01 T01570154  RH  100%=      5-min Rain = 0.33
KASU 150020Z 03011G22KT 16/15 A2996 RMK A01 T01560153  RH  100%=      5-min Rain = 0.27
KASU 150025Z 01005G13KT 16/15 A2998 RMK A01 T01570153  RH  100%=      5-min Rain = 0.26
KASU 150030Z 17008G14KT 16/15 A2997 RMK A01 T01550152  RH  100%=      5-min Rain = 0.19
KASU 150035Z 16009KT 15/15 A2994 RMK A01 T01520148  RH  100%=      5-min Rain = 0.15
KASU 150040Z 15015KT 15/15 A2991 RMK A01 T01500147  RH  100%=      5-min Rain = 0.09
KASU 150045Z 13014G20KT 15/15 A299 RMK A01 T01500147  RH  100%=      5-min Rain = 0.04
KASU 150050Z 12016G23KT 15/15 A299 RMK A01 T01480145  RH  100%=      5-min Rain = 0.01
KASU 150055Z 14014G20KT 15/14 A299 RMK A01 T01470144  RH  100%=      5-min Rain = 0
KASU 150100Z 12009KT 15/14 A299 RMK A01 T01480144  RH  100%=      5-min Rain = 0
KASU 150105Z 09008KT 15/15 A299 RMK A01 T01500146  RH  100%=      5-min Rain = 0
KASU 150110Z 13007KT 15/15 A2991 RMK A01 T01500147  RH  100%=      5-min Rain = 0
KASU 150115Z 13011KT 15/15 A2992 RMK A01 T01500147  RH  100%=      5-min Rain = 0
KASU 150120Z 15005KT 15/15 A2993 RMK A01 T01510148  RH  100%=      5-min Rain = 0
KASU 150125Z 14005KT 15/15 A2994 RMK A01 T01520149  RH  100%=      5-min Rain = 0
KASU 150130Z 14006KT 15/15 A2993 RMK A01 T01530149  RH  100%=      5-min Rain = 0
KASU 150135Z 16005KT 15/15 A2994 RMK A01 T01530150  RH  100%=      5-min Rain = 0
KASU 150140Z 16006KT 15/15 A2994 RMK A01 T01540151  RH  100%=      5-min Rain = 0
KASU 150145Z 17008KT 16/16 A2994 RMK A01 T01580155  RH  100%=      5-min Rain = 0
KASU 150150Z 19004KT 16/16 A2994 RMK A01 T01610158  RH  100%=      5-min Rain = 0
KASU 150155Z 17006KT 16/16 A2994 RMK A01 T01620158  RH  100%=      5-min Rain = 0
KASU 150200Z 15009KT 16/16 A2994 RMK A01 T01620159  RH  100%=      5-min Rain = 0
KASU 150205Z 13008KT 16/16 A2993 RMK A01 T01630159  RH  100%=      5-min Rain = 0
KASU 150210Z 12009KT 16/16 A2993 RMK A01 T01630160  RH  100%=      5-min Rain = 0
KASU 150215Z 11006KT 16/16 A2994 RMK A01 T01630160  RH  100%=      5-min Rain = 0
KASU 150220Z 13009KT 16/16 A2995 RMK A01 T01640160  RH  100%=      5-min Rain = 0
KASU 150225Z 11007KT 16/16 A2995 RMK A01 T01640161  RH  100%=      5-min Rain = 0
KASU 150230Z 10007KT 17/16 A2995 RMK A01 T01650162  RH  100%=      5-min Rain = 0
KASU 150235Z 11010KT 17/16 A2994 RMK A01 T01670164  RH  100%=      5-min Rain = 0
KASU 150240Z 12012KT 17/17 A2994 RMK A01 T01710168  RH  100%=      5-min Rain = 0
KASU 150245Z 12013KT 17/17 A2993 RMK A01 T01730170  RH  100%=      5-min Rain = 0
KASU 150250Z 13014KT 18/17 A2994 RMK A01 T01770171  RH  099%=      5-min Rain = 0
KASU 150255Z 14015G20KT 18/17 A2994 RMK A01 T01820168  RH  094%=      5-min Rain = 0
KASU 150300Z 14016KT 19/17 A2995 RMK A01 T01850168  RH  092%=      5-min Rain = 0
KASU 150305Z 14014KT 19/17 A2995 RMK A01 T01860165  RH  090%=      5-min Rain = 0
KASU 150310Z 13010KT 19/16 A2995 RMK A01 T01860161  RH  087%=      5-min Rain = 0
KASU 150315Z 13008KT 19/16 A2996 RMK A01 T01860158  RH  085%=      5-min Rain = 0
KASU 150320Z 13007KT 19/16 A2996 RMK A01 T01850156  RH  085%=      5-min Rain = 0
KASU 150325Z 15007KT 19/16 A2996 RMK A01 T01860156  RH  084%=      5-min Rain = 0
KASU 150330Z 15006KT 18/16 A2996 RMK A01 T01840156  RH  085%=      5-min Rain = 0
KASU 150335Z 15008KT 18/16 A2996 RMK A01 T01840157  RH  086%=      5-min Rain = 0
KASU 150340Z 16007KT 18/16 A2996 RMK A01 T01830157  RH  087%=      5-min Rain = 0
KASU 150345Z 17007KT 18/16 A2996 RMK A01 T01830158  RH  087%=      5-min Rain = 0
KASU 150350Z 16007KT 19/16 A2996 RMK A01 T01850159  RH  087%=      5-min Rain = 0
KASU 150355Z 16006KT 19/16 A2996 RMK A01 T01860160  RH  087%=      5-min Rain = 0
KASU 150400Z 16005KT 19/16 A2996 RMK A01 T01860160  RH  087%=      5-min Rain = 0
KASU 150405Z 16005KT 19/16 A2996 RMK A01 T01870159  RH  086%=      5-min Rain = 0
KASU 150410Z 14006KT 19/16 A2996 RMK A01 T01870157  RH  084%=      5-min Rain = 0
KASU 150415Z 14006KT 19/15 A2997 RMK A01 T01900154  RH  082%=      5-min Rain = 0
KASU 150420Z 14006KT 19/15 A2996 RMK A01 T01900152  RH  080%=      5-min Rain = 0
KASU 150425Z 15007KT 19/15 A2997 RMK A01 T01910151  RH  079%=      5-min Rain = 0
KASU 150430Z 14007KT 19/15 A2997 RMK A01 T01920150  RH  078%=      5-min Rain = 0
KASU 150435Z 14007KT 19/15 A2996 RMK A01 T01930149  RH  077%=      5-min Rain = 0
KASU 150440Z 14007KT 19/15 A2996 RMK A01 T01920148  RH  078%=      5-min Rain = 0
KASU 150445Z 14006KT 19/15 A2996 RMK A01 T01910148  RH  078%=      5-min Rain = 0
KASU 150450Z 13006KT 19/15 A2996 RMK A01 T01910148  RH  078%=      5-min Rain = 0
KASU 150455Z 13007KT 19/15 A2996 RMK A01 T01900148  RH  078%=      5-min Rain = 0

Page generated in 0.0092 seconds.